createdAt,value
2019-02-14T00:02:39.842Z,21.02
2019-02-14T00:07:45.103Z,20.08
2019-02-14T00:12:50.387Z,20.10
2019-02-14T00:17:55.655Z,21.65
2019-02-14T00:23:00.890Z,22.10
2019-02-14T00:28:06.311Z,21.87
2019-02-14T00:33:11.612Z,22.60
2019-02-14T00:38:16.936Z,23.87
2019-02-14T00:43:22.191Z,22.80
2019-02-14T00:48:27.470Z,21.68
2019-02-14T00:53:32.730Z,21.75
2019-02-14T00:58:38.006Z,22.95
2019-02-14T01:03:43.324Z,25.12
2019-02-14T01:08:49.625Z,24.50
2019-02-14T01:13:54.887Z,25.57
2019-02-14T01:19:00.231Z,26.62
2019-02-14T01:24:05.540Z,25.75
2019-02-14T01:29:10.832Z,25.77
2019-02-14T01:34:16.133Z,24.98
2019-02-14T01:39:21.749Z,24.77
2019-02-14T01:44:27.047Z,25.72
2019-02-14T01:49:32.361Z,25.65
2019-02-14T01:54:37.708Z,25.70
2019-02-14T01:59:42.942Z,26.82
2019-02-14T02:04:48.226Z,25.55
2019-02-14T02:09:53.539Z,25.15
2019-02-14T02:14:59.119Z,23.98
2019-02-14T02:20:06.573Z,23.70
2019-02-14T02:25:12.335Z,24.10
2019-02-14T02:30:17.619Z,25.60
2019-02-14T02:35:22.914Z,25.50
2019-02-14T02:40:28.219Z,27.05
2019-02-14T02:45:33.516Z,27.62
2019-02-14T02:50:38.981Z,25.68
2019-02-14T02:55:44.281Z,26.35
2019-02-14T03:00:49.603Z,24.02
2019-02-14T03:05:54.899Z,25.30
2019-02-14T03:11:00.216Z,25.37
2019-02-14T03:16:05.570Z,27.42
2019-02-14T03:21:10.893Z,25.52
2019-02-14T03:26:16.199Z,25.90
2019-02-14T03:31:21.500Z,26.30
2019-02-14T03:36:26.873Z,24.92
2019-02-14T03:41:32.187Z,23.25
2019-02-14T03:46:37.476Z,24.95
2019-02-14T03:51:42.785Z,23.67
2019-02-14T03:56:48.072Z,22.87
2019-02-14T04:01:53.379Z,25.60
2019-02-14T04:06:58.747Z,24.02
2019-02-14T04:12:04.053Z,22.50
2019-02-14T04:17:09.330Z,21.40
2019-02-14T04:22:14.652Z,21.93
2019-02-14T04:27:19.960Z,20.40
2019-02-14T04:32:25.350Z,20.65
2019-02-14T04:37:30.647Z,22.30
2019-02-14T04:42:35.934Z,21.80
2019-02-14T04:47:41.243Z,21.93
2019-02-14T04:52:46.536Z,21.07
2019-02-14T04:57:51.828Z,20.88
2019-02-14T05:02:57.186Z,21.37
2019-02-14T05:08:02.489Z,21.55
2019-02-14T05:13:07.780Z,22.40
2019-02-14T05:18:13.121Z,22.73
2019-02-14T05:23:18.627Z,23.50
2019-02-14T05:28:24.106Z,22.65
2019-02-14T05:33:29.484Z,23.62
2019-02-14T05:38:34.802Z,21.45
2019-02-14T05:43:40.112Z,25.70
2019-02-14T05:48:45.432Z,26.85
2019-02-14T05:53:50.718Z,26.90
2019-02-14T05:58:56.356Z,26.45
2019-02-14T06:04:01.909Z,27.85
2019-02-14T06:09:07.294Z,26.15
2019-02-14T06:14:12.616Z,25.30
2019-02-14T06:19:19.738Z,31.60
2019-02-14T06:24:25.965Z,24.72
2019-02-14T06:29:31.254Z,27.52
2019-02-14T06:34:36.558Z,34.60
2019-02-14T06:39:41.856Z,36.35
2019-02-14T06:44:47.171Z,38.38
2019-02-14T06:49:52.469Z,30.72
2019-02-14T06:54:57.856Z,24.27
2019-02-14T07:00:03.627Z,25.35
2019-02-14T07:05:10.388Z,24.57
2019-02-14T07:10:15.714Z,26.00
2019-02-14T07:15:20.997Z,24.07
2019-02-14T07:20:27.366Z,23.47
2019-02-14T07:25:32.661Z,21.25
2019-02-14T07:30:37.975Z,23.65
2019-02-14T07:35:43.285Z,20.08
2019-02-14T07:40:48.584Z,21.55
2019-02-14T07:45:54.996Z,21.15
2019-02-14T07:51:00.334Z,22.05
2019-02-14T07:56:05.711Z,24.87
2019-02-14T08:01:11.008Z,22.73
2019-02-14T08:06:16.391Z,21.65
2019-02-14T08:11:21.711Z,21.87
2019-02-14T08:16:27.013Z,24.65
2019-02-14T08:21:32.319Z,25.35
2019-02-14T08:26:37.612Z,28.00
2019-02-14T08:31:42.915Z,26.57
2019-02-14T08:36:48.193Z,24.32
2019-02-14T08:41:53.526Z,27.65
2019-02-14T08:46:59.072Z,23.42
2019-02-14T08:52:04.369Z,21.50
2019-02-14T08:57:09.672Z,21.02
2019-02-14T09:02:16.007Z,19.48
2019-02-14T09:07:21.294Z,26.97
2019-02-14T09:12:27.672Z,39.20
2019-02-14T09:17:32.970Z,26.17
2019-02-14T09:22:38.286Z,17.70
2019-02-14T09:27:43.677Z,82.50
2019-02-14T09:32:49.239Z,45.70
2019-02-14T09:38:02.819Z,23.15
2019-02-14T09:43:01.471Z,20.45
2019-02-14T09:48:06.788Z,19.20
2019-02-14T09:53:12.372Z,23.85
2019-02-14T09:58:17.717Z,16.40
2019-02-14T10:03:23.011Z,19.67
2019-02-14T10:08:28.321Z,15.83
2019-02-14T10:13:34.170Z,16.60
2019-02-14T10:18:39.528Z,15.53
2019-02-14T10:23:44.819Z,15.63
2019-02-14T10:28:50.134Z,15.93
2019-02-14T10:33:55.455Z,15.13
2019-02-14T10:39:00.750Z,13.28
2019-02-14T10:44:06.121Z,11.20
2019-02-14T10:49:11.413Z,11.48
2019-02-14T10:54:16.732Z,7.22
2019-02-14T10:59:22.027Z,7.67
2019-02-14T11:04:27.395Z,7.90
2019-02-14T11:09:32.706Z,7.10
2019-02-14T11:14:38.098Z,6.60
2019-02-14T11:19:43.417Z,10.15
2019-02-14T11:24:48.750Z,10.63
2019-02-14T11:29:54.252Z,8.80
2019-02-14T11:34:59.553Z,7.92
2019-02-14T11:40:07.601Z,7.92
2019-02-14T11:45:20.743Z,9.08
2019-02-14T11:50:26.050Z,9.00
2019-02-14T11:55:31.371Z,8.48
2019-02-14T12:00:36.686Z,7.25
2019-02-14T12:05:41.974Z,7.55
2019-02-14T12:10:47.362Z,7.87
2019-02-14T12:15:52.664Z,13.40
2019-02-14T12:20:59.517Z,19.65
2019-02-14T12:26:05.801Z,30.97
2019-02-14T12:31:11.267Z,18.75
2019-02-14T12:36:16.573Z,19.57
2019-02-14T12:41:21.877Z,19.87
2019-02-14T12:46:27.183Z,19.07
2019-02-14T12:51:32.519Z,18.98
2019-02-14T12:56:37.813Z,17.92
2019-02-14T13:01:43.105Z,20.92
2019-02-14T13:06:48.406Z,22.02
2019-02-14T13:11:53.845Z,23.15
2019-02-14T13:16:59.137Z,22.00
2019-02-14T13:22:04.630Z,23.45
2019-02-14T13:27:09.951Z,23.87
2019-02-14T13:32:15.320Z,23.73
2019-02-14T13:37:20.645Z,24.52
2019-02-14T13:42:25.936Z,25.65
2019-02-14T13:47:32.089Z,24.70
2019-02-14T13:52:37.418Z,24.30
2019-02-14T13:57:42.795Z,23.10
2019-02-14T14:02:48.079Z,26.00
2019-02-14T14:07:53.383Z,30.77
2019-02-14T14:12:58.702Z,29.92
2019-02-14T14:18:04.023Z,27.07
2019-02-14T14:23:09.328Z,36.55
2019-02-14T14:28:14.621Z,41.18
2019-02-14T14:33:19.945Z,32.93
2019-02-14T14:38:25.249Z,28.55
2019-02-14T14:43:35.141Z,32.67
2019-02-14T14:48:40.975Z,39.95
2019-02-14T14:53:46.272Z,37.50
2019-02-14T14:58:51.569Z,33.28
2019-02-14T15:03:56.874Z,33.45
2019-02-14T15:09:02.170Z,30.55
2019-02-14T15:14:08.663Z,35.20
2019-02-14T15:19:13.966Z,31.77
2019-02-14T15:24:19.281Z,35.90
2019-02-14T15:29:24.833Z,40.55
2019-02-14T15:34:31.150Z,44.27
2019-02-14T15:39:36.615Z,45.80
2019-02-14T15:44:41.998Z,55.75
2019-02-14T15:49:49.375Z,46.25
2019-02-14T15:54:55.606Z,40.67
2019-02-14T16:00:01.428Z,40.78
2019-02-14T16:05:07.493Z,39.10
2019-02-14T16:10:18.603Z,37.83
2019-02-14T16:15:19.755Z,41.65
2019-02-14T16:20:25.124Z,39.60
2019-02-14T16:25:30.515Z,37.67
2019-02-14T16:30:35.812Z,34.13
2019-02-14T16:35:41.198Z,38.73
2019-02-14T16:40:46.498Z,34.67
2019-02-14T16:45:51.791Z,32.65
2019-02-14T16:50:57.095Z,33.78
2019-02-14T16:56:02.491Z,33.02
2019-02-14T17:01:07.819Z,32.60
2019-02-14T17:06:13.121Z,35.60
2019-02-14T17:11:18.422Z,35.83
2019-02-14T17:16:23.728Z,35.88
2019-02-14T17:21:29.039Z,34.80
2019-02-14T17:26:34.345Z,53.60
2019-02-14T17:31:40.027Z,39.23
2019-02-14T17:36:45.319Z,50.33
2019-02-14T17:41:50.608Z,37.53
2019-02-14T17:46:55.923Z,57.60
2019-02-14T17:52:01.229Z,30.62
2019-02-14T17:57:06.589Z,27.20
2019-02-14T18:02:12.171Z,25.88
2019-02-14T18:07:17.462Z,35.38
2019-02-14T18:12:22.774Z,28.62
2019-02-14T18:17:28.432Z,27.37
2019-02-14T18:22:33.727Z,25.57
2019-02-14T18:27:39.023Z,26.40
2019-02-14T18:32:44.343Z,26.82
2019-02-14T18:37:49.722Z,25.75
2019-02-14T18:42:55.037Z,25.27
2019-02-14T18:48:00.341Z,25.95
2019-02-14T18:53:05.710Z,25.37
2019-02-14T18:58:10.997Z,26.17
2019-02-14T19:03:16.298Z,25.95
2019-02-14T19:08:21.626Z,21.23
2019-02-14T19:13:27.488Z,25.62
2019-02-14T19:18:32.875Z,28.02
2019-02-14T19:23:38.175Z,25.90
2019-02-14T19:28:43.483Z,29.18
2019-02-14T19:33:48.850Z,27.82
2019-02-14T19:38:54.322Z,29.40
2019-02-14T19:43:59.631Z,28.95
2019-02-14T19:49:05.029Z,28.38
2019-02-14T19:54:10.408Z,32.05
2019-02-14T19:59:15.905Z,30.05
2019-02-14T20:04:22.295Z,28.23
2019-02-14T20:09:27.726Z,29.50
2019-02-14T20:14:33.088Z,29.95
2019-02-14T20:19:38.377Z,30.37
2019-02-14T20:24:43.752Z,28.23
2019-02-14T20:29:50.163Z,33.23
2019-02-14T20:34:55.494Z,30.43
2019-02-14T20:40:00.883Z,29.45
2019-02-14T20:45:09.094Z,31.45
2019-02-14T20:50:17.138Z,31.80
2019-02-14T20:55:26.684Z,34.95
2019-02-14T21:00:34.032Z,38.48
2019-02-14T21:05:39.389Z,32.25
2019-02-14T21:10:44.994Z,33.90
2019-02-14T21:15:50.361Z,35.13
2019-02-14T21:20:55.655Z,34.75
2019-02-14T21:26:00.968Z,35.33
2019-02-14T21:31:07.256Z,37.40
2019-02-14T21:36:12.567Z,34.85
2019-02-14T21:41:17.883Z,37.40
2019-02-14T21:46:23.179Z,38.10
2019-02-14T21:51:28.505Z,39.38
2019-02-14T21:56:33.792Z,38.40
2019-02-14T22:01:39.137Z,36.30
2019-02-14T22:06:44.418Z,36.17
2019-02-14T22:11:50.810Z,39.27
2019-02-14T22:16:56.097Z,37.10
2019-02-14T22:22:01.387Z,37.42
2019-02-14T22:27:06.719Z,37.05
2019-02-14T22:32:13.100Z,34.30
2019-02-14T22:37:18.636Z,32.45
2019-02-14T22:42:24.017Z,30.68
2019-02-14T22:47:29.396Z,33.15
2019-02-14T22:52:34.750Z,32.88
2019-02-14T22:57:40.318Z,33.02
2019-02-14T23:02:45.629Z,36.10
2019-02-14T23:07:50.933Z,36.95
2019-02-14T23:12:56.407Z,36.45
2019-02-14T23:18:01.827Z,36.83
2019-02-14T23:23:07.202Z,38.10
2019-02-14T23:28:12.785Z,37.13
2019-02-14T23:33:18.084Z,33.85
2019-02-14T23:38:23.680Z,37.90
2019-02-14T23:43:29.116Z,34.10
2019-02-14T23:48:34.662Z,34.38
2019-02-14T23:53:40.011Z,34.95
2019-02-14T23:58:46.370Z,34.78
